Ogelthorpe, Georgia
Current Conditions -  °F | °C
As of 1:50 PM on Friday 21 Nov 2014 (Local Time) from KACJ Reporting Station
Clear Clear  
Wind Chill: 63°   Ceiling: Unl
Heat Index: 63°   Visibility: 7mi
Dew Point: 39°   Wind: 6mph
Humidity: 42%   Direction: 40°NE
Pressure: 30.36"   Gusts: NA
Location:  32.266°N, 84.1148°W
Report Text: KACJ 211850Z AUTO 04005KT 7SM CLR 17/04 A3036 RMK AO2
Loading
Personal Weather Stations






























Interactive Weather Map New forecast layout! Learn more

10-Day Weather Forecast

Advertisements
Track Severe Weather on mobile